createdAt,value
2023-04-09T00:01:02.262Z,99418.34
2023-04-09T00:06:11.887Z,99423.54
2023-04-09T00:11:15.475Z,99426.13
2023-04-09T00:16:19.239Z,99422.77
2023-04-09T00:21:22.810Z,99425.45
2023-04-09T00:26:26.283Z,99425.08
2023-04-09T00:31:29.871Z,99428.15
2023-04-09T00:36:33.407Z,99426.49
2023-04-09T00:41:37.465Z,99427.29
2023-04-09T00:46:41.722Z,99420.82
2023-04-09T00:51:47.892Z,99418.20
2023-04-09T00:56:51.690Z,99416.42
2023-04-09T01:01:58.482Z,99416.69
2023-04-09T01:07:13.696Z,99416.76
2023-04-09T01:12:27.886Z,99414.79
2023-04-09T01:17:39.171Z,99409.71
2023-04-09T01:22:50.418Z,99414.40
2023-04-09T01:28:13.466Z,99411.80
2023-04-09T01:33:18.199Z,99411.96
2023-04-09T01:38:22.213Z,99410.35
2023-04-09T01:43:26.734Z,99405.88
2023-04-09T01:48:31.306Z,99406.86
2023-04-09T01:53:34.953Z,99413.05
2023-04-09T01:58:38.734Z,99416.81
2023-04-09T02:03:54.440Z,99416.22
2023-04-09T02:09:01.941Z,99421.58
2023-04-09T02:14:05.501Z,99425.95
2023-04-09T02:19:18.178Z,99426.15
2023-04-09T02:24:24.675Z,99426.13
2023-04-09T02:29:28.017Z,99423.54
2023-04-09T02:34:31.281Z,99423.98
2023-04-09T02:39:34.972Z,99424.84
2023-04-09T02:44:38.826Z,99422.38
2023-04-09T02:49:42.155Z,99420.10
2023-04-09T02:54:45.428Z,99420.85
2023-04-09T02:59:51.011Z,99418.66
2023-04-09T03:04:55.067Z,99419.29
2023-04-09T03:09:58.370Z,99425.30
2023-04-09T03:15:01.598Z,99424.55
2023-04-09T03:20:06.374Z,99424.80
2023-04-09T03:25:12.887Z,99423.20
2023-04-09T03:30:16.792Z,99422.70
2023-04-09T03:35:20.809Z,99424.48
2023-04-09T03:40:24.553Z,99419.98
2023-04-09T03:45:29.491Z,99420.25
2023-04-09T03:50:43.088Z,99419.55
2023-04-09T03:55:47.943Z,99420.84
2023-04-09T04:00:57.284Z,99421.30
2023-04-09T04:06:24.133Z,99419.01
2023-04-09T04:11:58.973Z,99422.90
2023-04-09T04:17:14.712Z,99423.48
2023-04-09T04:22:18.571Z,99424.69
2023-04-09T04:27:22.992Z,99427.77
2023-04-09T04:32:30.594Z,99435.70
2023-04-09T04:37:37.868Z,99432.48
2023-04-09T04:42:41.878Z,99434.27
2023-04-09T04:47:48.031Z,99437.50
2023-04-09T04:52:54.210Z,99439.94
2023-04-09T04:57:58.447Z,99444.77
2023-04-09T05:03:10.910Z,99444.83
2023-04-09T05:08:30.304Z,99447.20
2023-04-09T05:13:34.229Z,99448.52
2023-04-09T05:18:45.527Z,99452.14
2023-04-09T05:24:00.665Z,99449.66
2023-04-09T05:29:07.870Z,99443.85
2023-04-09T05:34:11.374Z,99453.84
2023-04-09T05:39:18.231Z,99463.65
2023-04-09T05:44:22.112Z,99462.32
2023-04-09T05:49:26.064Z,99464.10
2023-04-09T05:54:32.929Z,99468.41
2023-04-09T05:59:36.464Z,99467.98
2023-04-09T06:04:40.200Z,99471.01
2023-04-09T06:09:47.036Z,99469.34
2023-04-09T06:14:50.382Z,99474.59
2023-04-09T06:19:56.782Z,99473.59
2023-04-09T06:25:00.312Z,99476.08
2023-04-09T06:30:04.115Z,99475.70
2023-04-09T06:35:10.811Z,99483.19
2023-04-09T06:40:14.641Z,99487.70
2023-04-09T06:45:18.235Z,99488.91
2023-04-09T06:50:21.755Z,99488.72
2023-04-09T06:55:26.996Z,99492.86
2023-04-09T07:00:30.993Z,99495.77
2023-04-09T07:05:34.678Z,99498.85
2023-04-09T07:10:38.320Z,99497.39
2023-04-09T07:15:42.673Z,99498.41
2023-04-09T07:20:55.427Z,99494.77
2023-04-09T07:25:58.775Z,99499.14
2023-04-09T07:31:05.497Z,99499.79
2023-04-09T07:36:09.557Z,99501.94
2023-04-09T07:41:16.023Z,99498.83
2023-04-09T07:46:21.995Z,99496.89
2023-04-09T07:51:26.010Z,99502.73
2023-04-09T07:56:32.192Z,99500.27
2023-04-09T08:01:43.452Z,99500.25
2023-04-09T08:06:50.754Z,99501.82
2023-04-09T08:12:04.876Z,99498.88
2023-04-09T08:17:09.213Z,99499.71
2023-04-09T08:22:12.769Z,99497.60
2023-04-09T08:27:19.081Z,99497.20
2023-04-09T08:32:30.243Z,99498.38
2023-04-09T08:37:47.416Z,99497.78
2023-04-09T08:42:57.059Z,99503.73
2023-04-09T08:48:04.074Z,99505.11
2023-04-09T08:53:18.858Z,99503.38
2023-04-09T08:58:22.415Z,99501.91
2023-04-09T09:03:26.149Z,99496.34
2023-04-09T09:08:30.846Z,99500.23
2023-04-09T09:13:34.187Z,99497.80
2023-04-09T09:18:40.607Z,99496.62
2023-04-09T09:23:44.658Z,99500.33
2023-04-09T09:28:49.102Z,99502.72
2023-04-09T09:33:53.355Z,99504.36
2023-04-09T09:38:57.972Z,99506.59
2023-04-09T09:44:01.659Z,99504.66
2023-04-09T09:49:06.317Z,99505.10
2023-04-09T09:54:13.052Z,99502.08
2023-04-09T09:59:21.771Z,99496.38
2023-04-09T10:04:29.456Z,99489.03
2023-04-09T10:09:35.487Z,99493.19
2023-04-09T10:14:40.491Z,99485.80
2023-04-09T10:19:57.993Z,99484.08
2023-04-09T10:25:01.445Z,99481.38
2023-04-09T10:30:07.576Z,99472.27
2023-04-09T10:35:11.409Z,99475.23
2023-04-09T10:40:20.650Z,99477.63
2023-04-09T10:45:24.362Z,99473.54
2023-04-09T10:50:28.796Z,99472.66
2023-04-09T10:55:45.465Z,99475.19
2023-04-09T11:00:57.208Z,99473.41
2023-04-09T11:06:06.106Z,99471.55
2023-04-09T11:11:10.232Z,99474.59
2023-04-09T11:16:23.003Z,99476.17
2023-04-09T11:21:29.002Z,99472.61
2023-04-09T11:26:36.448Z,99473.14
2023-04-09T11:31:39.848Z,99471.05
2023-04-09T11:36:43.129Z,99469.77
2023-04-09T11:41:47.053Z,99467.58
2023-04-09T11:46:50.626Z,99467.52
2023-04-09T11:51:54.783Z,99469.79
2023-04-09T11:57:05.581Z,99468.03
2023-04-09T12:02:09.400Z,99471.96
2023-04-09T12:07:12.883Z,99471.98
2023-04-09T12:12:20.464Z,99478.06
2023-04-09T12:17:23.826Z,99479.36
2023-04-09T12:22:27.300Z,99480.80
2023-04-09T12:27:32.885Z,99478.25
2023-04-09T12:32:37.360Z,99476.25
2023-04-09T12:37:40.759Z,99472.03
2023-04-09T12:42:45.200Z,99470.89
2023-04-09T12:47:48.630Z,99469.35
2023-04-09T12:52:51.999Z,99473.09
2023-04-09T12:57:55.520Z,99471.19
2023-04-09T13:02:59.166Z,99468.52
2023-04-09T13:08:05.322Z,99468.74
2023-04-09T13:13:12.260Z,99464.27
2023-04-09T13:18:16.145Z,99466.46
2023-04-09T13:23:19.601Z,99465.82
2023-04-09T13:28:22.913Z,99464.58
2023-04-09T13:33:26.156Z,99461.20
2023-04-09T13:38:29.435Z,99457.30
2023-04-09T13:43:32.775Z,99463.12
2023-04-09T13:48:36.044Z,99462.09
2023-04-09T13:53:39.286Z,99457.86
2023-04-09T13:58:43.649Z,99458.43
2023-04-09T14:03:47.264Z,99458.52
2023-04-09T14:08:51.414Z,99451.46
2023-04-09T14:13:55.815Z,99451.70
2023-04-09T14:18:59.291Z,99445.65
2023-04-09T14:24:02.915Z,99443.96
2023-04-09T14:29:06.300Z,99439.59
2023-04-09T14:34:11.099Z,99437.70
2023-04-09T14:39:14.457Z,99438.95
2023-04-09T14:44:17.733Z,99430.84
2023-04-09T14:49:21.603Z,99430.55
2023-04-09T14:54:25.145Z,99428.53
2023-04-09T14:59:28.527Z,99430.91
2023-04-09T15:04:32.223Z,99429.36
2023-04-09T15:09:35.877Z,99426.35
2023-04-09T15:14:39.344Z,99422.30
2023-04-09T15:19:42.904Z,99422.70
2023-04-09T15:24:46.566Z,99423.31
2023-04-09T15:29:50.147Z,99422.05
2023-04-09T15:34:53.425Z,99420.50
2023-04-09T15:39:56.670Z,99423.17
2023-04-09T15:45:00.114Z,99424.66
2023-04-09T15:50:03.743Z,99422.70
2023-04-09T15:55:07.598Z,99422.65
2023-04-09T16:00:15.609Z,99425.11
2023-04-09T16:05:19.393Z,99423.52
2023-04-09T16:10:22.916Z,99429.92
2023-04-09T16:15:27.401Z,99432.52
2023-04-09T16:20:31.397Z,99432.23
2023-04-09T16:25:35.870Z,99429.15
2023-04-09T16:30:39.455Z,99431.48
2023-04-09T16:35:43.662Z,99432.36
2023-04-09T16:40:47.121Z,99430.09
2023-04-09T16:45:50.637Z,99431.92
2023-04-09T16:50:54.061Z,99432.86
2023-04-09T16:55:57.589Z,99437.13
2023-04-09T17:01:02.211Z,99439.77
2023-04-09T17:06:06.154Z,99442.15
2023-04-09T17:11:09.524Z,99451.55
2023-04-09T17:16:13.049Z,99452.33
2023-04-09T17:21:16.258Z,99455.56
2023-04-09T17:26:20.821Z,99454.89
2023-04-09T17:31:24.418Z,99457.77
2023-04-09T17:36:33.385Z,99463.48
2023-04-09T17:41:37.774Z,99471.05
2023-04-09T17:46:42.595Z,99469.14
2023-04-09T17:51:46.280Z,99477.95
2023-04-09T17:56:49.759Z,99486.20
2023-04-09T18:01:55.275Z,99491.14
2023-04-09T18:06:58.757Z,99493.26
2023-04-09T18:12:02.876Z,99499.39
2023-04-09T18:17:06.314Z,99501.62
2023-04-09T18:22:10.044Z,99507.04
2023-04-09T18:27:13.550Z,99510.31
2023-04-09T18:32:19.202Z,99518.20
2023-04-09T18:37:22.830Z,99521.71
2023-04-09T18:42:26.525Z,99522.94
2023-04-09T18:47:30.241Z,99529.55
2023-04-09T18:52:37.751Z,99535.42
2023-04-09T18:57:43.820Z,99537.77
2023-04-09T19:02:48.107Z,99533.05
2023-04-09T19:07:51.597Z,99537.31
2023-04-09T19:12:55.723Z,99543.96
2023-04-09T19:17:59.450Z,99544.27
2023-04-09T19:23:02.936Z,99547.02
2023-04-09T19:28:06.321Z,99544.63
2023-04-09T19:33:09.860Z,99554.60
2023-04-09T19:38:13.575Z,99551.18
2023-04-09T19:43:17.090Z,99552.23
2023-04-09T19:48:20.972Z,99548.77
2023-04-09T19:53:24.459Z,99552.75
2023-04-09T19:58:28.031Z,99555.16
2023-04-09T20:03:34.729Z,99556.66
2023-04-09T20:08:38.408Z,99555.77
2023-04-09T20:13:42.283Z,99560.13
2023-04-09T20:18:45.709Z,99557.08
2023-04-09T20:23:49.351Z,99555.25
2023-04-09T20:28:52.901Z,99560.21
2023-04-09T20:33:56.497Z,99561.52
2023-04-09T20:38:59.959Z,99559.85
2023-04-09T20:44:03.515Z,99556.58
2023-04-09T20:49:06.927Z,99551.95
2023-04-09T20:54:10.277Z,99552.48
2023-04-09T20:59:13.727Z,99552.92
2023-04-09T21:04:17.468Z,99548.45
2023-04-09T21:09:21.088Z,99549.41
2023-04-09T21:14:24.903Z,99552.20
2023-04-09T21:19:28.562Z,99553.47
2023-04-09T21:24:34.099Z,99553.81
2023-04-09T21:29:37.751Z,99555.22
2023-04-09T21:34:41.183Z,99557.29
2023-04-09T21:39:44.717Z,99560.66
2023-04-09T21:44:47.990Z,99565.00
2023-04-09T21:49:51.330Z,99567.13
2023-04-09T21:54:54.606Z,99574.52
2023-04-09T21:59:59.095Z,99575.02
2023-04-09T22:05:02.619Z,99574.58
2023-04-09T22:10:06.706Z,99575.22
2023-04-09T22:15:11.351Z,99574.20
2023-04-09T22:20:14.768Z,99575.52
2023-04-09T22:25:18.054Z,99574.48
2023-04-09T22:30:23.802Z,99572.62
2023-04-09T22:35:27.263Z,99573.41
2023-04-09T22:40:30.555Z,99568.67
2023-04-09T22:45:33.978Z,99572.95
2023-04-09T22:50:37.911Z,99572.48
2023-04-09T22:55:41.393Z,99571.94
2023-04-09T23:00:45.134Z,99570.83
2023-04-09T23:05:48.635Z,99570.87
2023-04-09T23:10:52.131Z,99569.27
2023-04-09T23:15:55.556Z,99578.16
2023-04-09T23:20:59.150Z,99573.39
2023-04-09T23:26:02.883Z,99577.52
2023-04-09T23:31:07.244Z,99574.96
2023-04-09T23:36:11.114Z,99571.98
2023-04-09T23:41:14.501Z,99566.32
2023-04-09T23:46:18.428Z,99559.53
2023-04-09T23:51:21.988Z,99557.59
2023-04-09T23:56:25.527Z,99551.24
